sensor_id;sensor_type;location;lat;lon;timestamp;temperature;humidity
12720;DHT22;6424;48.520;11.228;2023-10-09T00:00:30;12.60;99.90
12720;DHT22;6424;48.520;11.228;2023-10-09T00:03:23;12.50;99.90
12720;DHT22;6424;48.520;11.228;2023-10-09T00:06:08;12.50;99.90
12720;DHT22;6424;48.520;11.228;2023-10-09T00:08:53;12.50;99.90
12720;DHT22;6424;48.520;11.228;2023-10-09T00:11:39;12.50;99.90
12720;DHT22;6424;48.520;11.228;2023-10-09T00:14:30;12.50;99.90
12720;DHT22;6424;48.520;11.228;2023-10-09T00:17:16;12.50;99.90
12720;DHT22;6424;48.520;11.228;2023-10-09T00:20:00;12.50;99.90
12720;DHT22;6424;48.520;11.228;2023-10-09T00:22:51;12.50;99.90
12720;DHT22;6424;48.520;11.228;2023-10-09T00:25:36;12.60;99.90
12720;DHT22;6424;48.520;11.228;2023-10-09T00:28:20;12.60;99.90
12720;DHT22;6424;48.520;11.228;2023-10-09T00:31:06;12.70;99.90
12720;DHT22;6424;48.520;11.228;2023-10-09T00:33:52;12.90;99.90
12720;DHT22;6424;48.520;11.228;2023-10-09T00:36:38;13.00;99.90
12720;DHT22;6424;48.520;11.228;2023-10-09T00:39:34;13.20;99.90
12720;DHT22;6424;48.520;11.228;2023-10-09T00:42:41;13.20;99.90
12720;DHT22;6424;48.520;11.228;2023-10-09T00:45:26;13.30;99.90
12720;DHT22;6424;48.520;11.228;2023-10-09T00:48:16;13.30;99.90
12720;DHT22;6424;48.520;11.228;2023-10-09T00:51:16;13.30;99.90
12720;DHT22;6424;48.520;11.228;2023-10-09T00:54:05;13.30;99.90
12720;DHT22;6424;48.520;11.228;2023-10-09T00:56:57;13.30;99.90
12720;DHT22;6424;48.520;11.228;2023-10-09T00:59:54;13.20;99.90
12720;DHT22;6424;48.520;11.228;2023-10-09T01:02:43;13.20;99.90
12720;DHT22;6424;48.520;11.228;2023-10-09T01:05:28;13.20;99.90
12720;DHT22;6424;48.520;11.228;2023-10-09T01:08:13;13.20;99.90
12720;DHT22;6424;48.520;11.228;2023-10-09T01:11:00;13.20;99.90
12720;DHT22;6424;48.520;11.228;2023-10-09T01:13:54;13.20;99.90
12720;DHT22;6424;48.520;11.228;2023-10-09T01:16:43;13.20;99.90
12720;DHT22;6424;48.520;11.228;2023-10-09T01:19:28;13.20;99.90
12720;DHT22;6424;48.520;11.228;2023-10-09T01:22:15;13.10;99.90
12720;DHT22;6424;48.520;11.228;2023-10-09T01:25:00;13.10;99.90
12720;DHT22;6424;48.520;11.228;2023-10-09T01:27:44;13.10;99.90
12720;DHT22;6424;48.520;11.228;2023-10-09T01:30:29;13.00;99.90
12720;DHT22;6424;48.520;11.228;2023-10-09T01:33:13;13.00;99.90
12720;DHT22;6424;48.520;11.228;2023-10-09T01:36:08;13.00;99.90
12720;DHT22;6424;48.520;11.228;2023-10-09T01:39:01;12.90;99.90
12720;DHT22;6424;48.520;11.228;2023-10-09T01:42:05;12.80;99.90
12720;DHT22;6424;48.520;11.228;2023-10-09T01:44:50;12.80;99.90
12720;DHT22;6424;48.520;11.228;2023-10-09T01:47:34;12.70;99.90
12720;DHT22;6424;48.520;11.228;2023-10-09T01:50:22;12.70;99.90
12720;DHT22;6424;48.520;11.228;2023-10-09T01:53:15;12.70;99.90
12720;DHT22;6424;48.520;11.228;2023-10-09T01:56:12;12.80;99.90
12720;DHT22;6424;48.520;11.228;2023-10-09T01:58:58;12.90;99.90
12720;DHT22;6424;48.520;11.228;2023-10-09T02:01:49;13.00;99.90
12720;DHT22;6424;48.520;11.228;2023-10-09T02:04:38;13.10;99.90
12720;DHT22;6424;48.520;11.228;2023-10-09T02:07:24;13.10;99.90
12720;DHT22;6424;48.520;11.228;2023-10-09T02:10:14;13.20;99.90
12720;DHT22;6424;48.520;11.228;2023-10-09T02:13:14;13.20;99.90
12720;DHT22;6424;48.520;11.228;2023-10-09T02:16:01;13.20;99.90
12720;DHT22;6424;48.520;11.228;2023-10-09T02:18:58;13.20;99.90
12720;DHT22;6424;48.520;11.228;2023-10-09T02:21:43;13.10;99.90
12720;DHT22;6424;48.520;11.228;2023-10-09T02:24:27;13.10;99.90
12720;DHT22;6424;48.520;11.228;2023-10-09T02:27:31;13.10;99.90
12720;DHT22;6424;48.520;11.228;2023-10-09T02:30:29;13.10;99.90
12720;DHT22;6424;48.520;11.228;2023-10-09T02:33:15;13.00;99.90
12720;DHT22;6424;48.520;11.228;2023-10-09T02:36:11;13.00;99.90
12720;DHT22;6424;48.520;11.228;2023-10-09T02:38:57;12.90;99.90
12720;DHT22;6424;48.520;11.228;2023-10-09T02:41:41;12.90;99.90
12720;DHT22;6424;48.520;11.228;2023-10-09T02:44:34;12.80;99.90
12720;DHT22;6424;48.520;11.228;2023-10-09T02:47:24;12.70;99.90
12720;DHT22;6424;48.520;11.228;2023-10-09T02:50:09;12.70;99.90
12720;DHT22;6424;48.520;11.228;2023-10-09T02:52:54;12.70;99.90
12720;DHT22;6424;48.520;11.228;2023-10-09T02:55:45;12.60;99.90
12720;DHT22;6424;48.520;11.228;2023-10-09T02:58:49;12.60;99.90
12720;DHT22;6424;48.520;11.228;2023-10-09T03:01:34;12.60;99.90
12720;DHT22;6424;48.520;11.228;2023-10-09T03:04:19;12.50;99.90
12720;DHT22;6424;48.520;11.228;2023-10-09T03:07:03;12.60;99.90
12720;DHT22;6424;48.520;11.228;2023-10-09T03:09:48;12.50;99.90
12720;DHT22;6424;48.520;11.228;2023-10-09T03:12:33;12.50;99.90
12720;DHT22;6424;48.520;11.228;2023-10-09T03:15:20;12.60;99.90
12720;DHT22;6424;48.520;11.228;2023-10-09T03:18:04;12.60;99.90
12720;DHT22;6424;48.520;11.228;2023-10-09T03:20:48;12.60;99.90
12720;DHT22;6424;48.520;11.228;2023-10-09T03:23:33;12.60;99.90
12720;DHT22;6424;48.520;11.228;2023-10-09T03:26:18;12.60;99.90
12720;DHT22;6424;48.520;11.228;2023-10-09T03:29:04;12.60;99.90
12720;DHT22;6424;48.520;11.228;2023-10-09T03:31:54;12.70;99.90
12720;DHT22;6424;48.520;11.228;2023-10-09T03:34:40;12.70;99.90
12720;DHT22;6424;48.520;11.228;2023-10-09T03:37:24;12.80;99.90
12720;DHT22;6424;48.520;11.228;2023-10-09T03:40:19;12.80;99.90
12720;DHT22;6424;48.520;11.228;2023-10-09T03:43:03;12.90;99.90
12720;DHT22;6424;48.520;11.228;2023-10-09T03:45:48;13.00;99.90
12720;DHT22;6424;48.520;11.228;2023-10-09T03:48:38;13.10;99.90
12720;DHT22;6424;48.520;11.228;2023-10-09T03:51:22;13.10;99.90
12720;DHT22;6424;48.520;11.228;2023-10-09T03:54:07;13.20;99.90
12720;DHT22;6424;48.520;11.228;2023-10-09T03:56:51;13.30;99.90
12720;DHT22;6424;48.520;11.228;2023-10-09T03:59:38;13.40;99.90
12720;DHT22;6424;48.520;11.228;2023-10-09T04:02:22;13.50;99.90
12720;DHT22;6424;48.520;11.228;2023-10-09T04:05:07;13.50;99.90
12720;DHT22;6424;48.520;11.228;2023-10-09T04:07:53;13.60;99.90
12720;DHT22;6424;48.520;11.228;2023-10-09T04:10:38;13.60;99.90
12720;DHT22;6424;48.520;11.228;2023-10-09T04:13:34;13.70;99.90
12720;DHT22;6424;48.520;11.228;2023-10-09T04:16:19;13.60;99.90
12720;DHT22;6424;48.520;11.228;2023-10-09T04:19:24;13.60;99.90
12720;DHT22;6424;48.520;11.228;2023-10-09T04:22:08;13.60;99.90
12720;DHT22;6424;48.520;11.228;2023-10-09T04:25:09;13.50;99.90
12720;DHT22;6424;48.520;11.228;2023-10-09T04:28:09;13.50;99.90
12720;DHT22;6424;48.520;11.228;2023-10-09T04:30:56;13.50;99.90
12720;DHT22;6424;48.520;11.228;2023-10-09T04:33:43;13.50;99.90
12720;DHT22;6424;48.520;11.228;2023-10-09T04:36:38;13.50;99.90
12720;DHT22;6424;48.520;11.228;2023-10-09T04:39:30;13.50;99.90
12720;DHT22;6424;48.520;11.228;2023-10-09T04:42:15;13.50;99.90
12720;DHT22;6424;48.520;11.228;2023-10-09T04:45:06;13.40;99.90
12720;DHT22;6424;48.520;11.228;2023-10-09T04:47:51;13.40;99.90
12720;DHT22;6424;48.520;11.228;2023-10-09T04:50:51;13.30;99.90
12720;DHT22;6424;48.520;11.228;2023-10-09T04:53:55;13.30;99.90
12720;DHT22;6424;48.520;11.228;2023-10-09T04:56:58;13.30;99.90
12720;DHT22;6424;48.520;11.228;2023-10-09T04:59:44;13.20;99.90
12720;DHT22;6424;48.520;11.228;2023-10-09T05:02:31;13.20;99.90
12720;DHT22;6424;48.520;11.228;2023-10-09T05:05:27;13.10;99.90
12720;DHT22;6424;48.520;11.228;2023-10-09T05:08:27;13.10;99.90
12720;DHT22;6424;48.520;11.228;2023-10-09T05:11:11;13.10;99.90
12720;DHT22;6424;48.520;11.228;2023-10-09T05:14:22;13.10;99.90
12720;DHT22;6424;48.520;11.228;2023-10-09T05:17:22;13.20;99.90
12720;DHT22;6424;48.520;11.228;2023-10-09T05:20:09;13.30;99.90
12720;DHT22;6424;48.520;11.228;2023-10-09T05:23:12;13.30;99.90
12720;DHT22;6424;48.520;11.228;2023-10-09T05:26:07;13.30;99.90
12720;DHT22;6424;48.520;11.228;2023-10-09T05:29:14;13.30;99.90
12720;DHT22;6424;48.520;11.228;2023-10-09T05:32:17;13.30;99.90
12720;DHT22;6424;48.520;11.228;2023-10-09T05:35:12;13.30;99.90
12720;DHT22;6424;48.520;11.228;2023-10-09T05:38:00;13.30;99.90
12720;DHT22;6424;48.520;11.228;2023-10-09T05:40:59;13.30;99.90
12720;DHT22;6424;48.520;11.228;2023-10-09T05:44:03;13.30;99.90
12720;DHT22;6424;48.520;11.228;2023-10-09T05:47:25;13.40;99.90
12720;DHT22;6424;48.520;11.228;2023-10-09T05:50:16;13.40;99.90
12720;DHT22;6424;48.520;11.228;2023-10-09T05:53:01;13.50;99.90
12720;DHT22;6424;48.520;11.228;2023-10-09T05:55:45;13.50;99.90
12720;DHT22;6424;48.520;11.228;2023-10-09T05:58:52;13.60;99.90
12720;DHT22;6424;48.520;11.228;2023-10-09T06:01:55;13.60;99.90
12720;DHT22;6424;48.520;11.228;2023-10-09T06:04:42;13.60;99.90
12720;DHT22;6424;48.520;11.228;2023-10-09T06:07:38;13.70;99.90
12720;DHT22;6424;48.520;11.228;2023-10-09T06:10:44;13.80;99.90
12720;DHT22;6424;48.520;11.228;2023-10-09T06:13:34;13.90;99.90
12720;DHT22;6424;48.520;11.228;2023-10-09T06:16:21;14.00;99.90
12720;DHT22;6424;48.520;11.228;2023-10-09T06:19:25;14.10;99.90
12720;DHT22;6424;48.520;11.228;2023-10-09T06:22:10;14.20;99.90
12720;DHT22;6424;48.520;11.228;2023-10-09T06:25:04;14.40;99.90
12720;DHT22;6424;48.520;11.228;2023-10-09T06:27:56;14.60;99.90
12720;DHT22;6424;48.520;11.228;2023-10-09T06:30:41;14.70;99.90
12720;DHT22;6424;48.520;11.228;2023-10-09T06:33:30;14.90;99.90
12720;DHT22;6424;48.520;11.228;2023-10-09T06:36:34;15.10;99.90
12720;DHT22;6424;48.520;11.228;2023-10-09T06:39:25;15.30;99.90
12720;DHT22;6424;48.520;11.228;2023-10-09T06:42:28;15.30;99.90
12720;DHT22;6424;48.520;11.228;2023-10-09T06:45:28;15.30;99.90
12720;DHT22;6424;48.520;11.228;2023-10-09T06:48:27;15.30;99.90
12720;DHT22;6424;48.520;11.228;2023-10-09T06:51:18;15.30;99.90
12720;DHT22;6424;48.520;11.228;2023-10-09T06:54:11;15.30;99.90
12720;DHT22;6424;48.520;11.228;2023-10-09T06:56:59;15.30;99.90
12720;DHT22;6424;48.520;11.228;2023-10-09T07:00:10;15.40;99.90
12720;DHT22;6424;48.520;11.228;2023-10-09T07:03:14;15.50;99.90
12720;DHT22;6424;48.520;11.228;2023-10-09T07:06:09;15.70;99.90
12720;DHT22;6424;48.520;11.228;2023-10-09T07:09:07;16.00;99.90
12720;DHT22;6424;48.520;11.228;2023-10-09T07:11:52;16.30;99.90
12720;DHT22;6424;48.520;11.228;2023-10-09T07:14:36;16.40;99.90
12720;DHT22;6424;48.520;11.228;2023-10-09T07:17:20;16.40;99.90
12720;DHT22;6424;48.520;11.228;2023-10-09T07:20:11;16.40;99.90
12720;DHT22;6424;48.520;11.228;2023-10-09T07:23:19;16.40;99.90
12720;DHT22;6424;48.520;11.228;2023-10-09T07:26:05;16.40;99.90
12720;DHT22;6424;48.520;11.228;2023-10-09T07:29:03;16.40;99.90
12720;DHT22;6424;48.520;11.228;2023-10-09T07:32:00;16.40;99.90
12720;DHT22;6424;48.520;11.228;2023-10-09T07:34:56;16.40;99.90
12720;DHT22;6424;48.520;11.228;2023-10-09T07:37:43;16.50;99.90
12720;DHT22;6424;48.520;11.228;2023-10-09T07:40:44;16.50;99.90
12720;DHT22;6424;48.520;11.228;2023-10-09T07:43:40;16.60;99.90
12720;DHT22;6424;48.520;11.228;2023-10-09T07:46:27;16.60;99.90
12720;DHT22;6424;48.520;11.228;2023-10-09T07:49:14;16.70;99.90
12720;DHT22;6424;48.520;11.228;2023-10-09T07:52:08;16.70;99.90
12720;DHT22;6424;48.520;11.228;2023-10-09T07:54:52;16.70;99.90
12720;DHT22;6424;48.520;11.228;2023-10-09T07:57:46;16.80;99.90
12720;DHT22;6424;48.520;11.228;2023-10-09T08:00:36;16.80;99.90
12720;DHT22;6424;48.520;11.228;2023-10-09T08:03:20;16.90;99.90
12720;DHT22;6424;48.520;11.228;2023-10-09T08:06:16;17.00;99.90
12720;DHT22;6424;48.520;11.228;2023-10-09T08:09:19;17.10;99.90
12720;DHT22;6424;48.520;11.228;2023-10-09T08:12:22;17.20;99.90
12720;DHT22;6424;48.520;11.228;2023-10-09T08:15:26;17.30;99.90
12720;DHT22;6424;48.520;11.228;2023-10-09T08:18:35;17.50;99.90
12720;DHT22;6424;48.520;11.228;2023-10-09T08:21:28;17.60;99.90
12720;DHT22;6424;48.520;11.228;2023-10-09T08:24:47;17.70;99.90
12720;DHT22;6424;48.520;11.228;2023-10-09T08:27:41;17.70;99.90
12720;DHT22;6424;48.520;11.228;2023-10-09T08:30:38;17.60;99.90
12720;DHT22;6424;48.520;11.228;2023-10-09T08:33:33;17.60;99.90
12720;DHT22;6424;48.520;11.228;2023-10-09T08:36:25;17.70;99.90
12720;DHT22;6424;48.520;11.228;2023-10-09T08:39:12;17.70;99.90
12720;DHT22;6424;48.520;11.228;2023-10-09T08:42:10;17.70;99.90
12720;DHT22;6424;48.520;11.228;2023-10-09T08:44:56;17.80;99.90
12720;DHT22;6424;48.520;11.228;2023-10-09T08:47:44;17.80;99.90
12720;DHT22;6424;48.520;11.228;2023-10-09T08:53:14;17.90;99.90
12720;DHT22;6424;48.520;11.228;2023-10-09T08:56:00;17.80;99.90
12720;DHT22;6424;48.520;11.228;2023-10-09T08:58:44;17.90;99.90
12720;DHT22;6424;48.520;11.228;2023-10-09T09:01:28;17.90;99.90
12720;DHT22;6424;48.520;11.228;2023-10-09T09:04:36;18.00;99.90
12720;DHT22;6424;48.520;11.228;2023-10-09T09:07:26;18.10;99.90
12720;DHT22;6424;48.520;11.228;2023-10-09T09:10:12;18.10;99.90
12720;DHT22;6424;48.520;11.228;2023-10-09T09:13:05;18.20;99.90
12720;DHT22;6424;48.520;11.228;2023-10-09T09:15:50;18.20;99.90
12720;DHT22;6424;48.520;11.228;2023-10-09T09:19:01;18.20;99.90
12720;DHT22;6424;48.520;11.228;2023-10-09T09:21:57;18.30;99.90
12720;DHT22;6424;48.520;11.228;2023-10-09T09:24:59;18.30;99.90
12720;DHT22;6424;48.520;11.228;2023-10-09T09:27:53;18.40;99.90
12720;DHT22;6424;48.520;11.228;2023-10-09T09:30:39;18.40;99.90
12720;DHT22;6424;48.520;11.228;2023-10-09T09:33:27;18.40;99.90
12720;DHT22;6424;48.520;11.228;2023-10-09T09:36:14;18.40;99.90
12720;DHT22;6424;48.520;11.228;2023-10-09T09:38:59;18.40;99.90
12720;DHT22;6424;48.520;11.228;2023-10-09T09:41:46;18.40;99.90
12720;DHT22;6424;48.520;11.228;2023-10-09T09:44:32;18.50;99.90
12720;DHT22;6424;48.520;11.228;2023-10-09T09:47:18;18.50;99.90
12720;DHT22;6424;48.520;11.228;2023-10-09T09:50:11;18.60;99.90
12720;DHT22;6424;48.520;11.228;2023-10-09T09:53:09;18.60;99.90
12720;DHT22;6424;48.520;11.228;2023-10-09T09:55:56;18.70;99.90
12720;DHT22;6424;48.520;11.228;2023-10-09T09:58:45;18.80;99.90
12720;DHT22;6424;48.520;11.228;2023-10-09T10:01:32;18.90;99.90
12720;DHT22;6424;48.520;11.228;2023-10-09T10:04:19;19.00;99.90
12720;DHT22;6424;48.520;11.228;2023-10-09T10:07:06;19.10;99.90
12720;DHT22;6424;48.520;11.228;2023-10-09T10:09:56;19.10;99.90
12720;DHT22;6424;48.520;11.228;2023-10-09T10:21:38;19.30;99.90
12720;DHT22;6424;48.520;11.228;2023-10-09T10:27:15;19.40;99.90
12720;DHT22;6424;48.520;11.228;2023-10-09T10:32:58;19.50;99.90
12720;DHT22;6424;48.520;11.228;2023-10-09T10:35:53;19.50;99.90
12720;DHT22;6424;48.520;11.228;2023-10-09T10:38:42;19.60;99.90
12720;DHT22;6424;48.520;11.228;2023-10-09T10:41:30;19.70;99.90
12720;DHT22;6424;48.520;11.228;2023-10-09T10:44:29;19.80;99.90
12720;DHT22;6424;48.520;11.228;2023-10-09T10:47:27;19.80;99.90
12720;DHT22;6424;48.520;11.228;2023-10-09T10:50:18;19.90;99.90
12720;DHT22;6424;48.520;11.228;2023-10-09T10:53:14;19.90;99.90
12720;DHT22;6424;48.520;11.228;2023-10-09T10:56:03;20.00;99.90
12720;DHT22;6424;48.520;11.228;2023-10-09T10:58:56;20.00;99.90
12720;DHT22;6424;48.520;11.228;2023-10-09T11:01:50;20.00;99.90
12720;DHT22;6424;48.520;11.228;2023-10-09T11:04:57;19.90;99.90
12720;DHT22;6424;48.520;11.228;2023-10-09T11:07:58;20.00;99.90
12720;DHT22;6424;48.520;11.228;2023-10-09T11:10:44;20.00;99.90
12720;DHT22;6424;48.520;11.228;2023-10-09T11:13:34;20.00;99.90
12720;DHT22;6424;48.520;11.228;2023-10-09T11:16:20;20.00;99.90
12720;DHT22;6424;48.520;11.228;2023-10-09T11:19:25;20.10;99.90
12720;DHT22;6424;48.520;11.228;2023-10-09T11:22:15;20.10;99.90
12720;DHT22;6424;48.520;11.228;2023-10-09T11:25:12;20.20;99.90
12720;DHT22;6424;48.520;11.228;2023-10-09T11:27:57;20.20;99.90
12720;DHT22;6424;48.520;11.228;2023-10-09T11:30:55;20.20;99.90
12720;DHT22;6424;48.520;11.228;2023-10-09T11:33:47;20.20;99.90
12720;DHT22;6424;48.520;11.228;2023-10-09T11:36:38;20.20;99.90
12720;DHT22;6424;48.520;11.228;2023-10-09T11:39:27;20.20;99.90
12720;DHT22;6424;48.520;11.228;2023-10-09T11:42:34;20.20;99.90
12720;DHT22;6424;48.520;11.228;2023-10-09T11:45:28;20.10;99.90
12720;DHT22;6424;48.520;11.228;2023-10-09T11:48:17;20.10;99.90
12720;DHT22;6424;48.520;11.228;2023-10-09T11:51:31;20.10;99.90
12720;DHT22;6424;48.520;11.228;2023-10-09T11:54:32;20.10;99.90
12720;DHT22;6424;48.520;11.228;2023-10-09T11:57:17;20.00;99.90
12720;DHT22;6424;48.520;11.228;2023-10-09T12:00:04;19.90;99.90
12720;DHT22;6424;48.520;11.228;2023-10-09T12:03:11;19.80;99.90
12720;DHT22;6424;48.520;11.228;2023-10-09T12:06:02;19.80;99.90
12720;DHT22;6424;48.520;11.228;2023-10-09T12:08:49;19.70;99.90
12720;DHT22;6424;48.520;11.228;2023-10-09T12:11:33;19.70;99.90
12720;DHT22;6424;48.520;11.228;2023-10-09T12:14:18;19.70;99.90
12720;DHT22;6424;48.520;11.228;2023-10-09T12:17:08;19.60;99.90
12720;DHT22;6424;48.520;11.228;2023-10-09T12:19:52;19.60;99.90
12720;DHT22;6424;48.520;11.228;2023-10-09T12:22:37;19.50;99.90
12720;DHT22;6424;48.520;11.228;2023-10-09T12:25:25;19.50;99.90
12720;DHT22;6424;48.520;11.228;2023-10-09T12:28:11;19.50;99.90
12720;DHT22;6424;48.520;11.228;2023-10-09T12:30:59;19.40;99.90
12720;DHT22;6424;48.520;11.228;2023-10-09T12:33:45;19.30;99.90
12720;DHT22;6424;48.520;11.228;2023-10-09T12:36:30;19.20;99.90
12720;DHT22;6424;48.520;11.228;2023-10-09T12:39:21;19.10;99.90
12720;DHT22;6424;48.520;11.228;2023-10-09T12:42:06;19.10;99.90
12720;DHT22;6424;48.520;11.228;2023-10-09T12:44:51;19.00;99.90
12720;DHT22;6424;48.520;11.228;2023-10-09T12:47:36;19.00;99.90
12720;DHT22;6424;48.520;11.228;2023-10-09T12:50:25;19.00;99.90
12720;DHT22;6424;48.520;11.228;2023-10-09T12:53:12;19.10;99.90
12720;DHT22;6424;48.520;11.228;2023-10-09T12:56:02;19.10;99.90
12720;DHT22;6424;48.520;11.228;2023-10-09T12:58:46;19.10;99.90
12720;DHT22;6424;48.520;11.228;2023-10-09T13:01:36;19.10;99.90
12720;DHT22;6424;48.520;11.228;2023-10-09T13:04:26;19.10;99.90
12720;DHT22;6424;48.520;11.228;2023-10-09T13:07:15;19.10;99.90
12720;DHT22;6424;48.520;11.228;2023-10-09T13:10:06;19.00;99.90
12720;DHT22;6424;48.520;11.228;2023-10-09T13:12:56;18.80;99.90
12720;DHT22;6424;48.520;11.228;2023-10-09T13:15:40;18.70;99.90
12720;DHT22;6424;48.520;11.228;2023-10-09T13:18:26;18.60;99.90
12720;DHT22;6424;48.520;11.228;2023-10-09T13:21:11;18.50;99.90
12720;DHT22;6424;48.520;11.228;2023-10-09T13:23:55;18.40;99.90
12720;DHT22;6424;48.520;11.228;2023-10-09T13:26:42;18.30;99.90
12720;DHT22;6424;48.520;11.228;2023-10-09T13:29:30;18.30;99.90
12720;DHT22;6424;48.520;11.228;2023-10-09T13:32:17;18.30;99.90
12720;DHT22;6424;48.520;11.228;2023-10-09T13:35:05;18.20;99.90
12720;DHT22;6424;48.520;11.228;2023-10-09T13:37:49;18.20;99.90
12720;DHT22;6424;48.520;11.228;2023-10-09T13:40:40;18.30;99.90
12720;DHT22;6424;48.520;11.228;2023-10-09T13:43:24;18.30;99.90
12720;DHT22;6424;48.520;11.228;2023-10-09T13:46:10;18.30;99.90
12720;DHT22;6424;48.520;11.228;2023-10-09T14:12:40;18.40;99.90
12720;DHT22;6424;48.520;11.228;2023-10-09T14:15:26;18.40;99.90
12720;DHT22;6424;48.520;11.228;2023-10-09T14:18:11;18.40;99.90
12720;DHT22;6424;48.520;11.228;2023-10-09T14:20:55;18.50;99.90
12720;DHT22;6424;48.520;11.228;2023-10-09T14:23:41;18.50;99.90
12720;DHT22;6424;48.520;11.228;2023-10-09T14:26:30;18.50;99.90
12720;DHT22;6424;48.520;11.228;2023-10-09T14:29:18;18.50;99.90
12720;DHT22;6424;48.520;11.228;2023-10-09T14:32:03;18.50;99.90
12720;DHT22;6424;48.520;11.228;2023-10-09T14:34:48;18.50;99.90
12720;DHT22;6424;48.520;11.228;2023-10-09T14:37:35;18.50;99.90
12720;DHT22;6424;48.520;11.228;2023-10-09T14:40:19;18.50;99.90
12720;DHT22;6424;48.520;11.228;2023-10-09T14:43:13;18.50;99.90
12720;DHT22;6424;48.520;11.228;2023-10-09T14:46:05;18.50;99.90
12720;DHT22;6424;48.520;11.228;2023-10-09T14:48:55;18.50;99.90
12720;DHT22;6424;48.520;11.228;2023-10-09T14:51:40;18.50;99.90
12720;DHT22;6424;48.520;11.228;2023-10-09T14:54:26;18.50;99.90
12720;DHT22;6424;48.520;11.228;2023-10-09T14:57:12;18.50;99.90
12720;DHT22;6424;48.520;11.228;2023-10-09T14:59:56;18.50;99.90
12720;DHT22;6424;48.520;11.228;2023-10-09T15:02:43;18.50;99.90
12720;DHT22;6424;48.520;11.228;2023-10-09T15:05:27;18.50;99.90
12720;DHT22;6424;48.520;11.228;2023-10-09T15:08:15;18.40;99.90
12720;DHT22;6424;48.520;11.228;2023-10-09T15:10:59;18.40;99.90
12720;DHT22;6424;48.520;11.228;2023-10-09T15:13:44;18.40;99.90
12720;DHT22;6424;48.520;11.228;2023-10-09T15:16:29;18.40;99.90
12720;DHT22;6424;48.520;11.228;2023-10-09T15:19:14;18.40;99.90
12720;DHT22;6424;48.520;11.228;2023-10-09T15:22:00;18.50;99.90
12720;DHT22;6424;48.520;11.228;2023-10-09T15:24:45;18.50;99.90
12720;DHT22;6424;48.520;11.228;2023-10-09T15:27:29;18.60;99.90
12720;DHT22;6424;48.520;11.228;2023-10-09T15:30:13;18.60;99.90
12720;DHT22;6424;48.520;11.228;2023-10-09T15:32:58;18.60;99.90
12720;DHT22;6424;48.520;11.228;2023-10-09T15:35:43;18.60;99.90
12720;DHT22;6424;48.520;11.228;2023-10-09T15:38:31;18.70;99.90
12720;DHT22;6424;48.520;11.228;2023-10-09T15:41:16;18.70;99.90
12720;DHT22;6424;48.520;11.228;2023-10-09T15:44:00;18.60;99.90
12720;DHT22;6424;48.520;11.228;2023-10-09T15:46:45;18.60;99.90
12720;DHT22;6424;48.520;11.228;2023-10-09T15:49:29;18.60;99.90
12720;DHT22;6424;48.520;11.228;2023-10-09T15:52:14;18.60;99.90
12720;DHT22;6424;48.520;11.228;2023-10-09T15:55:00;18.50;99.90
12720;DHT22;6424;48.520;11.228;2023-10-09T15:57:45;18.50;99.90
12720;DHT22;6424;48.520;11.228;2023-10-09T16:00:29;18.40;99.90
12720;DHT22;6424;48.520;11.228;2023-10-09T16:03:14;18.30;99.90
12720;DHT22;6424;48.520;11.228;2023-10-09T16:05:58;18.20;99.90
12720;DHT22;6424;48.520;11.228;2023-10-09T16:08:45;18.20;99.90
12720;DHT22;6424;48.520;11.228;2023-10-09T16:11:29;18.20;99.90
12720;DHT22;6424;48.520;11.228;2023-10-09T16:14:17;18.10;99.90
12720;DHT22;6424;48.520;11.228;2023-10-09T16:17:02;18.10;99.90
12720;DHT22;6424;48.520;11.228;2023-10-09T16:19:46;18.10;99.90
12720;DHT22;6424;48.520;11.228;2023-10-09T16:22:32;18.00;99.90
12720;DHT22;6424;48.520;11.228;2023-10-09T16:25:16;18.00;99.90
12720;DHT22;6424;48.520;11.228;2023-10-09T16:28:04;18.10;99.90
12720;DHT22;6424;48.520;11.228;2023-10-09T16:30:48;18.10;99.90
12720;DHT22;6424;48.520;11.228;2023-10-09T16:33:32;18.10;99.90
12720;DHT22;6424;48.520;11.228;2023-10-09T16:36:18;18.10;99.90
12720;DHT22;6424;48.520;11.228;2023-10-09T16:39:03;18.00;99.90
12720;DHT22;6424;48.520;11.228;2023-10-09T16:41:50;18.00;99.90
12720;DHT22;6424;48.520;11.228;2023-10-09T16:44:35;18.00;99.90
12720;DHT22;6424;48.520;11.228;2023-10-09T16:47:20;18.00;99.90
12720;DHT22;6424;48.520;11.228;2023-10-09T16:50:10;18.00;99.90
12720;DHT22;6424;48.520;11.228;2023-10-09T16:52:56;18.00;99.90
12720;DHT22;6424;48.520;11.228;2023-10-09T16:55:40;18.00;99.90
12720;DHT22;6424;48.520;11.228;2023-10-09T16:58:27;18.00;99.90
12720;DHT22;6424;48.520;11.228;2023-10-09T17:01:12;17.90;99.90
12720;DHT22;6424;48.520;11.228;2023-10-09T17:03:56;17.90;99.90
12720;DHT22;6424;48.520;11.228;2023-10-09T17:06:45;17.80;99.90
12720;DHT22;6424;48.520;11.228;2023-10-09T17:09:31;17.80;99.90
12720;DHT22;6424;48.520;11.228;2023-10-09T17:12:18;17.70;99.90
12720;DHT22;6424;48.520;11.228;2023-10-09T17:15:02;17.60;99.90
12720;DHT22;6424;48.520;11.228;2023-10-09T17:17:47;17.60;99.90
12720;DHT22;6424;48.520;11.228;2023-10-09T17:20:41;17.50;99.90
12720;DHT22;6424;48.520;11.228;2023-10-09T17:23:32;17.40;99.90
12720;DHT22;6424;48.520;11.228;2023-10-09T17:26:17;17.40;99.90
12720;DHT22;6424;48.520;11.228;2023-10-09T17:29:08;17.40;99.90
12720;DHT22;6424;48.520;11.228;2023-10-09T17:31:54;17.30;99.90
12720;DHT22;6424;48.520;11.228;2023-10-09T17:34:38;17.30;99.90
12720;DHT22;6424;48.520;11.228;2023-10-09T17:37:24;17.30;99.90
12720;DHT22;6424;48.520;11.228;2023-10-09T17:40:09;17.30;99.90
12720;DHT22;6424;48.520;11.228;2023-10-09T17:42:53;17.20;99.90
12720;DHT22;6424;48.520;11.228;2023-10-09T17:45:39;17.10;99.90
12720;DHT22;6424;48.520;11.228;2023-10-09T17:48:25;17.10;99.90
12720;DHT22;6424;48.520;11.228;2023-10-09T17:51:09;17.00;99.90
12720;DHT22;6424;48.520;11.228;2023-10-09T17:53:55;17.00;99.90
12720;DHT22;6424;48.520;11.228;2023-10-09T17:56:39;17.00;99.90
12720;DHT22;6424;48.520;11.228;2023-10-09T17:59:24;17.00;99.90
12720;DHT22;6424;48.520;11.228;2023-10-09T18:02:11;17.00;99.90
12720;DHT22;6424;48.520;11.228;2023-10-09T18:04:57;17.00;99.90
12720;DHT22;6424;48.520;11.228;2023-10-09T18:07:42;17.00;99.90
12720;DHT22;6424;48.520;11.228;2023-10-09T18:10:37;17.00;99.90
12720;DHT22;6424;48.520;11.228;2023-10-09T18:13:25;17.00;99.90
12720;DHT22;6424;48.520;11.228;2023-10-09T18:16:10;17.00;99.90
12720;DHT22;6424;48.520;11.228;2023-10-09T18:19:00;16.90;99.90
12720;DHT22;6424;48.520;11.228;2023-10-09T18:21:48;16.90;99.90
12720;DHT22;6424;48.520;11.228;2023-10-09T18:24:35;16.90;99.90
12720;DHT22;6424;48.520;11.228;2023-10-09T18:27:24;17.00;99.90
12720;DHT22;6424;48.520;11.228;2023-10-09T18:30:11;17.00;99.90
12720;DHT22;6424;48.520;11.228;2023-10-09T18:32:56;17.00;99.90